sensor_id;sensor_type;location;lat;lon;timestamp;pressure;altitude;pressure_sealevel;temperature;humidity
50166;BME280;36071;48.140;11.516;2022-12-16T00:03:24;93950.0;;;0.6;97.0
50166;BME280;36071;48.140;11.516;2022-12-16T00:08:24;93960.0;;;0.6;97.4
50166;BME280;36071;48.140;11.516;2022-12-16T00:13:24;93940.0;;;0.6;97.1
50166;BME280;36071;48.140;11.516;2022-12-16T00:18:24;93950.0;;;0.6;97.8
50166;BME280;36071;48.140;11.516;2022-12-16T00:23:24;93950.0;;;0.6;98.2
50166;BME280;36071;48.140;11.516;2022-12-16T00:28:24;93950.0;;;0.6;98.4
50166;BME280;36071;48.140;11.516;2022-12-16T00:33:25;93950.0;;;0.6;98.6
50166;BME280;36071;48.140;11.516;2022-12-16T00:38:24;93950.0;;;0.6;99.0
50166;BME280;36071;48.140;11.516;2022-12-16T00:43:24;93940.0;;;0.5;99.1
50166;BME280;36071;48.140;11.516;2022-12-16T00:53:24;93960.0;;;0.6;99.0
50166;BME280;36071;48.140;11.516;2022-12-16T00:58:24;93950.0;;;0.6;98.6
50166;BME280;36071;48.140;11.516;2022-12-16T01:03:24;93960.0;;;0.6;97.7
50166;BME280;36071;48.140;11.516;2022-12-16T01:08:24;93980.0;;;0.6;97.2
50166;BME280;36071;48.140;11.516;2022-12-16T01:13:24;93980.0;;;0.6;97.1
50166;BME280;36071;48.140;11.516;2022-12-16T01:18:24;94000.0;;;0.6;98.5
50166;BME280;36071;48.140;11.516;2022-12-16T01:23:24;94000.0;;;0.6;98.2
50166;BME280;36071;48.140;11.516;2022-12-16T01:33:24;94000.0;;;0.6;98.6
50166;BME280;36071;48.140;11.516;2022-12-16T01:38:24;94010.0;;;0.5;98.5
50166;BME280;36071;48.140;11.516;2022-12-16T01:43:25;94010.0;;;0.6;98.5
50166;BME280;36071;48.140;11.516;2022-12-16T01:48:28;94010.0;;;0.6;98.1
50166;BME280;36071;48.140;11.516;2022-12-16T01:53:24;94010.0;;;0.6;97.1
50166;BME280;36071;48.140;11.516;2022-12-16T02:03:24;94000.0;;;0.6;97.9
50166;BME280;36071;48.140;11.516;2022-12-16T02:08:24;94010.0;;;0.6;98.8
50166;BME280;36071;48.140;11.516;2022-12-16T02:13:25;94010.0;;;0.6;98.5
50166;BME280;36071;48.140;11.516;2022-12-16T02:18:26;94010.0;;;0.6;98.3
50166;BME280;36071;48.140;11.516;2022-12-16T02:23:29;94010.0;;;0.6;98.2
50166;BME280;36071;48.140;11.516;2022-12-16T02:28:28;94020.0;;;0.5;98.8
50166;BME280;36071;48.140;11.516;2022-12-16T02:33:29;94030.0;;;0.5;97.5
50166;BME280;36071;48.140;11.516;2022-12-16T02:38:25;94050.0;;;0.5;97.0
50166;BME280;36071;48.140;11.516;2022-12-16T02:43:28;94040.0;;;0.6;97.1
50166;BME280;36071;48.140;11.516;2022-12-16T02:48:24;94040.0;;;0.6;97.6
50166;BME280;36071;48.140;11.516;2022-12-16T02:53:24;94050.0;;;0.7;96.9
50166;BME280;36071;48.140;11.516;2022-12-16T02:58:24;94060.0;;;0.6;97.0
50166;BME280;36071;48.140;11.516;2022-12-16T03:03:25;94060.0;;;0.6;96.9
50166;BME280;36071;48.140;11.516;2022-12-16T03:08:25;94070.0;;;0.6;97.1
50166;BME280;36071;48.140;11.516;2022-12-16T03:13:24;94070.0;;;0.5;96.0
50166;BME280;36071;48.140;11.516;2022-12-16T03:18:24;94070.0;;;0.3;94.4
50166;BME280;36071;48.140;11.516;2022-12-16T03:23:24;94070.0;;;0.3;94.0
50166;BME280;36071;48.140;11.516;2022-12-16T03:28:27;94070.0;;;0.1;93.4
50166;BME280;36071;48.140;11.516;2022-12-16T03:33:25;94070.0;;;0.1;92.9
50166;BME280;36071;48.140;11.516;2022-12-16T03:38:24;94060.0;;;0.2;92.8
50166;BME280;36071;48.140;11.516;2022-12-16T03:43:24;94080.0;;;0.2;93.2
50166;BME280;36071;48.140;11.516;2022-12-16T03:48:24;94080.0;;;0.0;92.5
50166;BME280;36071;48.140;11.516;2022-12-16T03:53:24;94080.0;;;0.0;91.8
50166;BME280;36071;48.140;11.516;2022-12-16T03:58:24;94090.0;;;0.0;90.9
50166;BME280;36071;48.140;11.516;2022-12-16T04:03:24;94090.0;;;-0.1;91.3
50166;BME280;36071;48.140;11.516;2022-12-16T04:08:24;94100.0;;;-0.3;91.1
50166;BME280;36071;48.140;11.516;2022-12-16T04:13:24;94110.0;;;-0.3;90.5
50166;BME280;36071;48.140;11.516;2022-12-16T04:18:24;94130.0;;;-0.3;91.1
50166;BME280;36071;48.140;11.516;2022-12-16T04:23:24;94140.0;;;-0.2;91.6
50166;BME280;36071;48.140;11.516;2022-12-16T04:28:24;94140.0;;;-0.2;90.2
50166;BME280;36071;48.140;11.516;2022-12-16T04:33:24;94140.0;;;-0.2;90.3
50166;BME280;36071;48.140;11.516;2022-12-16T04:43:24;94150.0;;;-0.2;90.2
50166;BME280;36071;48.140;11.516;2022-12-16T04:48:24;94160.0;;;-0.3;89.2
50166;BME280;36071;48.140;11.516;2022-12-16T04:53:24;94160.0;;;-0.2;89.3
50166;BME280;36071;48.140;11.516;2022-12-16T04:58:24;94170.0;;;-0.3;89.7
50166;BME280;36071;48.140;11.516;2022-12-16T05:03:24;94190.0;;;-0.3;89.7
50166;BME280;36071;48.140;11.516;2022-12-16T05:08:24;94200.0;;;-0.3;89.0
50166;BME280;36071;48.140;11.516;2022-12-16T05:13:24;94190.0;;;-0.3;89.2
50166;BME280;36071;48.140;11.516;2022-12-16T05:18:24;94200.0;;;-0.4;89.0
50166;BME280;36071;48.140;11.516;2022-12-16T05:23:24;94210.0;;;-0.3;90.2
50166;BME280;36071;48.140;11.516;2022-12-16T05:28:24;94210.0;;;-0.4;90.0
50166;BME280;36071;48.140;11.516;2022-12-16T05:33:24;94210.0;;;-0.5;90.4
50166;BME280;36071;48.140;11.516;2022-12-16T05:38:24;94210.0;;;-0.4;89.2
50166;BME280;36071;48.140;11.516;2022-12-16T05:43:24;94210.0;;;-0.5;89.5
50166;BME280;36071;48.140;11.516;2022-12-16T05:48:24;94230.0;;;-0.5;89.6
50166;BME280;36071;48.140;11.516;2022-12-16T05:53:24;94240.0;;;-0.3;88.6
50166;BME280;36071;48.140;11.516;2022-12-16T05:58:24;94240.0;;;-0.5;89.8
50166;BME280;36071;48.140;11.516;2022-12-16T06:03:24;94250.0;;;-0.4;89.8
50166;BME280;36071;48.140;11.516;2022-12-16T06:08:24;94250.0;;;-0.4;88.5
50166;BME280;36071;48.140;11.516;2022-12-16T06:13:24;94260.0;;;-0.5;88.9
50166;BME280;36071;48.140;11.516;2022-12-16T06:18:24;94270.0;;;-0.5;89.7
50166;BME280;36071;48.140;11.516;2022-12-16T06:23:24;94270.0;;;-0.6;89.6
50166;BME280;36071;48.140;11.516;2022-12-16T06:28:24;94270.0;;;-0.6;90.7
50166;BME280;36071;48.140;11.516;2022-12-16T06:33:24;94290.0;;;-0.6;89.6
50166;BME280;36071;48.140;11.516;2022-12-16T06:38:24;94300.0;;;-0.7;89.7
50166;BME280;36071;48.140;11.516;2022-12-16T06:43:24;94310.0;;;-0.8;89.6
50166;BME280;36071;48.140;11.516;2022-12-16T06:48:24;94320.0;;;-0.8;88.9
50166;BME280;36071;48.140;11.516;2022-12-16T06:53:24;94320.0;;;-0.9;89.2
50166;BME280;36071;48.140;11.516;2022-12-16T06:58:24;94330.0;;;-0.8;89.3
50166;BME280;36071;48.140;11.516;2022-12-16T07:03:24;94350.0;;;-0.9;88.0
50166;BME280;36071;48.140;11.516;2022-12-16T07:08:24;94350.0;;;-0.7;87.7
50166;BME280;36071;48.140;11.516;2022-12-16T07:13:24;94360.0;;;-0.8;88.8
50166;BME280;36071;48.140;11.516;2022-12-16T07:18:24;94370.0;;;-0.6;93.1
50166;BME280;36071;48.140;11.516;2022-12-16T07:23:24;94390.0;;;-0.7;90.8
50166;BME280;36071;48.140;11.516;2022-12-16T07:33:24;94390.0;;;-0.6;90.9
50166;BME280;36071;48.140;11.516;2022-12-16T07:38:24;94400.0;;;-0.8;89.5
50166;BME280;36071;48.140;11.516;2022-12-16T07:43:24;94410.0;;;-0.6;90.3
50166;BME280;36071;48.140;11.516;2022-12-16T07:48:24;94410.0;;;-0.7;89.5
50166;BME280;36071;48.140;11.516;2022-12-16T07:53:24;94430.0;;;-0.7;90.0
50166;BME280;36071;48.140;11.516;2022-12-16T07:58:24;94440.0;;;-0.8;89.9
50166;BME280;36071;48.140;11.516;2022-12-16T08:03:24;94450.0;;;-0.8;90.3
50166;BME280;36071;48.140;11.516;2022-12-16T08:08:24;94450.0;;;-0.9;88.4
50166;BME280;36071;48.140;11.516;2022-12-16T08:13:24;94460.0;;;-0.9;89.2
50166;BME280;36071;48.140;11.516;2022-12-16T08:18:24;94460.0;;;-0.9;89.5
50166;BME280;36071;48.140;11.516;2022-12-16T08:23:24;94470.0;;;-0.7;88.4
50166;BME280;36071;48.140;11.516;2022-12-16T08:28:24;94480.0;;;-0.9;88.3
50166;BME280;36071;48.140;11.516;2022-12-16T08:33:24;94480.0;;;-0.8;88.6
50166;BME280;36071;48.140;11.516;2022-12-16T08:38:24;94490.0;;;-0.8;88.2
50166;BME280;36071;48.140;11.516;2022-12-16T08:43:24;94500.0;;;-0.8;87.9
50166;BME280;36071;48.140;11.516;2022-12-16T08:48:24;94510.0;;;-0.8;87.7
50166;BME280;36071;48.140;11.516;2022-12-16T08:53:24;94510.0;;;-0.8;89.3
50166;BME280;36071;48.140;11.516;2022-12-16T08:58:24;94510.0;;;-0.8;88.6
50166;BME280;36071;48.140;11.516;2022-12-16T09:03:24;94520.0;;;-0.6;88.1
50166;BME280;36071;48.140;11.516;2022-12-16T09:08:24;94530.0;;;-0.7;89.0
50166;BME280;36071;48.140;11.516;2022-12-16T09:13:24;94530.0;;;-0.7;87.8
50166;BME280;36071;48.140;11.516;2022-12-16T09:18:24;94540.0;;;-0.7;87.6
50166;BME280;36071;48.140;11.516;2022-12-16T09:23:24;94550.0;;;-0.7;87.6
50166;BME280;36071;48.140;11.516;2022-12-16T09:28:24;94570.0;;;-0.7;86.8
50166;BME280;36071;48.140;11.516;2022-12-16T09:33:24;94560.0;;;-0.7;88.1
50166;BME280;36071;48.140;11.516;2022-12-16T09:38:24;94570.0;;;-0.6;88.4
50166;BME280;36071;48.140;11.516;2022-12-16T09:43:28;94580.0;;;-0.6;89.0
50166;BME280;36071;48.140;11.516;2022-12-16T09:48:40;94590.0;;;-0.7;88.8
50166;BME280;36071;48.140;11.516;2022-12-16T09:53:24;94590.0;;;-0.6;87.9
50166;BME280;36071;48.140;11.516;2022-12-16T09:58:25;94600.0;;;-0.8;88.1
50166;BME280;36071;48.140;11.516;2022-12-16T10:03:25;94600.0;;;-0.6;87.5
50166;BME280;36071;48.140;11.516;2022-12-16T10:08:24;94600.0;;;-0.7;86.7
50166;BME280;36071;48.140;11.516;2022-12-16T10:13:25;94610.0;;;-0.9;86.0
50166;BME280;36071;48.140;11.516;2022-12-16T10:18:28;94610.0;;;-0.8;87.5
50166;BME280;36071;48.140;11.516;2022-12-16T10:23:25;94610.0;;;-0.6;87.5
50166;BME280;36071;48.140;11.516;2022-12-16T10:28:27;94610.0;;;-0.7;86.0
50166;BME280;36071;48.140;11.516;2022-12-16T10:33:25;94630.0;;;-0.7;87.1
50166;BME280;36071;48.140;11.516;2022-12-16T10:38:25;94630.0;;;-0.6;85.1
50166;BME280;36071;48.140;11.516;2022-12-16T10:43:26;94630.0;;;-0.7;85.4
50166;BME280;36071;48.140;11.516;2022-12-16T10:48:25;94630.0;;;-0.7;84.1
50166;BME280;36071;48.140;11.516;2022-12-16T10:53:24;94630.0;;;-0.8;85.6
50166;BME280;36071;48.140;11.516;2022-12-16T10:58:24;94630.0;;;-0.8;85.7
50166;BME280;36071;48.140;11.516;2022-12-16T11:03:25;94640.0;;;-0.6;85.3
50166;BME280;36071;48.140;11.516;2022-12-16T11:08:25;94640.0;;;-0.8;84.6
50166;BME280;36071;48.140;11.516;2022-12-16T11:13:25;94650.0;;;-0.7;85.8
50166;BME280;36071;48.140;11.516;2022-12-16T11:18:24;94650.0;;;-0.7;85.4
50166;BME280;36071;48.140;11.516;2022-12-16T11:23:24;94650.0;;;-0.7;85.1
50166;BME280;36071;48.140;11.516;2022-12-16T11:28:24;94660.0;;;-0.9;85.0
50166;BME280;36071;48.140;11.516;2022-12-16T11:33:24;94660.0;;;-0.9;85.3
50166;BME280;36071;48.140;11.516;2022-12-16T11:38:25;94660.0;;;-0.8;84.9
50166;BME280;36071;48.140;11.516;2022-12-16T11:43:24;94650.0;;;-0.9;85.6
50166;BME280;36071;48.140;11.516;2022-12-16T11:48:27;94650.0;;;-0.9;86.7
50166;BME280;36071;48.140;11.516;2022-12-16T11:53:25;94650.0;;;-0.7;85.6
50166;BME280;36071;48.140;11.516;2022-12-16T11:58:25;94660.0;;;-0.6;86.4
50166;BME280;36071;48.140;11.516;2022-12-16T12:03:24;94670.0;;;-0.7;86.0
50166;BME280;36071;48.140;11.516;2022-12-16T12:08:26;94680.0;;;-0.6;85.4
50166;BME280;36071;48.140;11.516;2022-12-16T12:13:31;94670.0;;;-0.6;85.6
50166;BME280;36071;48.140;11.516;2022-12-16T12:18:27;94680.0;;;-0.9;86.0
50166;BME280;36071;48.140;11.516;2022-12-16T12:23:26;94680.0;;;-0.8;85.9
50166;BME280;36071;48.140;11.516;2022-12-16T12:28:27;94680.0;;;-0.9;85.5
50166;BME280;36071;48.140;11.516;2022-12-16T12:33:26;94680.0;;;-0.8;85.4
50166;BME280;36071;48.140;11.516;2022-12-16T12:38:26;94690.0;;;-0.9;84.6
50166;BME280;36071;48.140;11.516;2022-12-16T12:43:27;94700.0;;;-0.8;84.4
50166;BME280;36071;48.140;11.516;2022-12-16T12:48:25;94700.0;;;-0.8;84.7
50166;BME280;36071;48.140;11.516;2022-12-16T12:53:26;94710.0;;;-0.8;84.6
50166;BME280;36071;48.140;11.516;2022-12-16T12:58:24;94710.0;;;-0.8;84.4
50166;BME280;36071;48.140;11.516;2022-12-16T13:03:26;94720.0;;;-0.8;84.1
50166;BME280;36071;48.140;11.516;2022-12-16T13:08:33;94720.0;;;-0.7;85.2
50166;BME280;36071;48.140;11.516;2022-12-16T13:13:28;94720.0;;;-0.9;84.6
50166;BME280;36071;48.140;11.516;2022-12-16T13:18:24;94730.0;;;-1.0;84.9
50166;BME280;36071;48.140;11.516;2022-12-16T13:23:27;94730.0;;;-0.8;86.9
50166;BME280;36071;48.140;11.516;2022-12-16T13:28:25;94740.0;;;-0.9;85.6
50166;BME280;36071;48.140;11.516;2022-12-16T13:33:25;94750.0;;;-1.0;85.4
50166;BME280;36071;48.140;11.516;2022-12-16T13:38:24;94760.0;;;-1.0;85.0
50166;BME280;36071;48.140;11.516;2022-12-16T13:43:40;94770.0;;;-1.1;85.4
50166;BME280;36071;48.140;11.516;2022-12-16T13:48:26;94780.0;;;-1.1;85.3
50166;BME280;36071;48.140;11.516;2022-12-16T13:53:24;94780.0;;;-1.1;85.7
50166;BME280;36071;48.140;11.516;2022-12-16T13:58:28;94790.0;;;-1.1;85.3
50166;BME280;36071;48.140;11.516;2022-12-16T14:03:26;94800.0;;;-1.1;85.3
50166;BME280;36071;48.140;11.516;2022-12-16T14:08:24;94800.0;;;-1.1;85.9
50166;BME280;36071;48.140;11.516;2022-12-16T14:13:25;94810.0;;;-1.0;85.5
50166;BME280;36071;48.140;11.516;2022-12-16T14:18:26;94820.0;;;-1.0;85.9
50166;BME280;36071;48.140;11.516;2022-12-16T14:23:26;94840.0;;;-1.1;87.0
50166;BME280;36071;48.140;11.516;2022-12-16T14:28:25;94850.0;;;-1.1;85.3
50166;BME280;36071;48.140;11.516;2022-12-16T14:33:25;94860.0;;;-0.9;86.1
50166;BME280;36071;48.140;11.516;2022-12-16T14:38:25;94870.0;;;-0.9;86.4
50166;BME280;36071;48.140;11.516;2022-12-16T14:43:24;94870.0;;;-0.9;85.3
50166;BME280;36071;48.140;11.516;2022-12-16T14:48:25;94880.0;;;-1.1;86.6
50166;BME280;36071;48.140;11.516;2022-12-16T14:53:29;94880.0;;;-1.0;86.1
50166;BME280;36071;48.140;11.516;2022-12-16T14:58:24;94880.0;;;-1.2;86.3
50166;BME280;36071;48.140;11.516;2022-12-16T15:03:25;94890.0;;;-1.1;86.5
50166;BME280;36071;48.140;11.516;2022-12-16T15:08:24;94890.0;;;-1.2;86.6
50166;BME280;36071;48.140;11.516;2022-12-16T15:13:24;94900.0;;;-1.5;86.6
50166;BME280;36071;48.140;11.516;2022-12-16T15:18:25;94910.0;;;-1.4;86.6
50166;BME280;36071;48.140;11.516;2022-12-16T15:23:24;94910.0;;;-1.3;85.8
50166;BME280;36071;48.140;11.516;2022-12-16T15:28:25;94900.0;;;-1.5;86.2
50166;BME280;36071;48.140;11.516;2022-12-16T15:33:24;94910.0;;;-1.6;85.3
50166;BME280;36071;48.140;11.516;2022-12-16T15:38:26;94940.0;;;-1.5;85.1
50166;BME280;36071;48.140;11.516;2022-12-16T15:43:25;94950.0;;;-1.6;84.8
50166;BME280;36071;48.140;11.516;2022-12-16T15:48:25;94950.0;;;-1.4;85.2
50166;BME280;36071;48.140;11.516;2022-12-16T15:53:28;94960.0;;;-1.4;85.7
50166;BME280;36071;48.140;11.516;2022-12-16T15:58:25;94960.0;;;-1.5;85.3
50166;BME280;36071;48.140;11.516;2022-12-16T16:03:24;94970.0;;;-1.5;85.2
50166;BME280;36071;48.140;11.516;2022-12-16T16:08:24;94980.0;;;-1.6;86.9
50166;BME280;36071;48.140;11.516;2022-12-16T16:13:24;94980.0;;;-1.4;85.4
50166;BME280;36071;48.140;11.516;2022-12-16T16:18:24;94990.0;;;-1.5;85.7
50166;BME280;36071;48.140;11.516;2022-12-16T16:23:24;94970.0;;;-1.7;86.6
50166;BME280;36071;48.140;11.516;2022-12-16T16:28:24;95000.0;;;-1.6;86.6
50166;BME280;36071;48.140;11.516;2022-12-16T16:33:24;95010.0;;;-1.5;85.6
50166;BME280;36071;48.140;11.516;2022-12-16T16:38:24;95020.0;;;-1.5;87.6
50166;BME280;36071;48.140;11.516;2022-12-16T16:43:24;95020.0;;;-1.5;87.2
50166;BME280;36071;48.140;11.516;2022-12-16T16:48:24;95020.0;;;-1.4;86.8
50166;BME280;36071;48.140;11.516;2022-12-16T16:53:24;95030.0;;;-1.5;86.8
50166;BME280;36071;48.140;11.516;2022-12-16T16:58:25;95040.0;;;-1.6;86.5
50166;BME280;36071;48.140;11.516;2022-12-16T17:03:24;95040.0;;;-1.6;87.3
50166;BME280;36071;48.140;11.516;2022-12-16T17:08:24;95050.0;;;-1.6;87.1
50166;BME280;36071;48.140;11.516;2022-12-16T17:13:24;95070.0;;;-1.6;86.9
50166;BME280;36071;48.140;11.516;2022-12-16T17:18:24;95070.0;;;-1.7;87.7
50166;BME280;36071;48.140;11.516;2022-12-16T17:23:24;95070.0;;;-1.6;87.4
50166;BME280;36071;48.140;11.516;2022-12-16T17:28:24;95080.0;;;-1.6;87.5
50166;BME280;36071;48.140;11.516;2022-12-16T17:33:24;95090.0;;;-1.6;88.3
50166;BME280;36071;48.140;11.516;2022-12-16T17:38:24;95100.0;;;-1.6;88.8
50166;BME280;36071;48.140;11.516;2022-12-16T17:43:24;95100.0;;;-1.6;88.5
50166;BME280;36071;48.140;11.516;2022-12-16T17:48:24;95110.0;;;-1.5;88.0
50166;BME280;36071;48.140;11.516;2022-12-16T17:53:24;95130.0;;;-1.6;88.7
50166;BME280;36071;48.140;11.516;2022-12-16T17:58:28;95130.0;;;-1.6;88.9
50166;BME280;36071;48.140;11.516;2022-12-16T18:03:24;95120.0;;;-1.6;90.1
50166;BME280;36071;48.140;11.516;2022-12-16T18:08:24;95130.0;;;-1.6;89.3
50166;BME280;36071;48.140;11.516;2022-12-16T18:13:24;95140.0;;;-1.6;89.0
50166;BME280;36071;48.140;11.516;2022-12-16T18:18:24;95140.0;;;-1.6;89.7
50166;BME280;36071;48.140;11.516;2022-12-16T18:23:26;95150.0;;;-1.8;90.4
50166;BME280;36071;48.140;11.516;2022-12-16T18:28:24;95150.0;;;-1.8;91.7
50166;BME280;36071;48.140;11.516;2022-12-16T18:33:24;95170.0;;;-1.6;90.9
50166;BME280;36071;48.140;11.516;2022-12-16T18:38:24;95170.0;;;-1.5;90.7
50166;BME280;36071;48.140;11.516;2022-12-16T18:43:24;95180.0;;;-1.6;91.3
50166;BME280;36071;48.140;11.516;2022-12-16T18:48:24;95190.0;;;-1.7;90.8
50166;BME280;36071;48.140;11.516;2022-12-16T18:53:24;95190.0;;;-1.6;90.9
50166;BME280;36071;48.140;11.516;2022-12-16T18:58:24;95190.0;;;-1.5;91.0
50166;BME280;36071;48.140;11.516;2022-12-16T19:03:24;95210.0;;;-1.6;90.2
50166;BME280;36071;48.140;11.516;2022-12-16T19:08:24;95210.0;;;-1.5;90.8
50166;BME280;36071;48.140;11.516;2022-12-16T19:13:24;95210.0;;;-1.6;90.6
50166;BME280;36071;48.140;11.516;2022-12-16T19:18:24;95210.0;;;-1.5;90.1
50166;BME280;36071;48.140;11.516;2022-12-16T19:23:24;95220.0;;;-1.6;91.1
50166;BME280;36071;48.140;11.516;2022-12-16T19:28:24;95220.0;;;-1.7;91.2
50166;BME280;36071;48.140;11.516;2022-12-16T19:33:24;95230.0;;;-1.7;91.1
50166;BME280;36071;48.140;11.516;2022-12-16T19:38:24;95240.0;;;-1.7;90.1
50166;BME280;36071;48.140;11.516;2022-12-16T19:43:24;95240.0;;;-1.7;89.9
50166;BME280;36071;48.140;11.516;2022-12-16T19:48:24;95250.0;;;-1.6;89.8
50166;BME280;36071;48.140;11.516;2022-12-16T19:53:24;95250.0;;;-1.8;90.8
50166;BME280;36071;48.140;11.516;2022-12-16T19:58:24;95260.0;;;-1.7;90.9
50166;BME280;36071;48.140;11.516;2022-12-16T20:03:24;95260.0;;;-1.8;89.9
50166;BME280;36071;48.140;11.516;2022-12-16T20:08:24;95260.0;;;-1.7;89.3
50166;BME280;36071;48.140;11.516;2022-12-16T20:13:24;95270.0;;;-1.8;89.5
50166;BME280;36071;48.140;11.516;2022-12-16T20:18:24;95290.0;;;-1.8;89.8
50166;BME280;36071;48.140;11.516;2022-12-16T20:23:24;95300.0;;;-1.7;88.7
50166;BME280;36071;48.140;11.516;2022-12-16T20:28:24;95310.0;;;-1.9;89.4
50166;BME280;36071;48.140;11.516;2022-12-16T20:33:24;95310.0;;;-1.8;89.4
50166;BME280;36071;48.140;11.516;2022-12-16T20:38:24;95330.0;;;-1.8;89.0
50166;BME280;36071;48.140;11.516;2022-12-16T20:43:24;95330.0;;;-1.8;88.4
50166;BME280;36071;48.140;11.516;2022-12-16T20:48:24;95340.0;;;-1.8;88.0
50166;BME280;36071;48.140;11.516;2022-12-16T20:53:24;95340.0;;;-1.7;87.5
50166;BME280;36071;48.140;11.516;2022-12-16T20:58:24;95340.0;;;-1.8;87.6
50166;BME280;36071;48.140;11.516;2022-12-16T21:03:24;95360.0;;;-1.8;89.4
50166;BME280;36071;48.140;11.516;2022-12-16T21:08:24;95360.0;;;-1.7;88.7
50166;BME280;36071;48.140;11.516;2022-12-16T21:13:24;95370.0;;;-1.7;87.1
50166;BME280;36071;48.140;11.516;2022-12-16T21:18:26;95370.0;;;-1.7;85.8
50166;BME280;36071;48.140;11.516;2022-12-16T21:23:24;95370.0;;;-1.8;86.4
50166;BME280;36071;48.140;11.516;2022-12-16T21:28:24;95380.0;;;-1.8;86.3
50166;BME280;36071;48.140;11.516;2022-12-16T21:33:24;95390.0;;;-1.9;86.2
50166;BME280;36071;48.140;11.516;2022-12-16T21:38:24;95390.0;;;-1.8;86.6
50166;BME280;36071;48.140;11.516;2022-12-16T21:43:24;95410.0;;;-1.8;86.9
50166;BME280;36071;48.140;11.516;2022-12-16T21:48:24;95410.0;;;-1.8;86.3
50166;BME280;36071;48.140;11.516;2022-12-16T21:53:24;95430.0;;;-1.9;86.6
50166;BME280;36071;48.140;11.516;2022-12-16T21:58:24;95430.0;;;-1.9;86.4
50166;BME280;36071;48.140;11.516;2022-12-16T22:03:24;95440.0;;;-1.9;86.0
50166;BME280;36071;48.140;11.516;2022-12-16T22:08:24;95440.0;;;-1.9;85.9
50166;BME280;36071;48.140;11.516;2022-12-16T22:13:24;95450.0;;;-2.0;86.2
50166;BME280;36071;48.140;11.516;2022-12-16T22:18:41;95460.0;;;-2.0;86.4
50166;BME280;36071;48.140;11.516;2022-12-16T22:23:26;95460.0;;;-2.1;87.0
50166;BME280;36071;48.140;11.516;2022-12-16T22:28:24;95460.0;;;-2.0;86.7
50166;BME280;36071;48.140;11.516;2022-12-16T22:33:24;95480.0;;;-2.0;87.0
50166;BME280;36071;48.140;11.516;2022-12-16T22:38:24;95480.0;;;-2.0;85.5
50166;BME280;36071;48.140;11.516;2022-12-16T22:43:27;95480.0;;;-2.1;84.8
50166;BME280;36071;48.140;11.516;2022-12-16T22:48:24;95480.0;;;-2.1;84.3
50166;BME280;36071;48.140;11.516;2022-12-16T22:53:24;95490.0;;;-2.2;84.4
50166;BME280;36071;48.140;11.516;2022-12-16T22:58:24;95490.0;;;-2.2;83.9
50166;BME280;36071;48.140;11.516;2022-12-16T23:03:24;95500.0;;;-2.3;84.4
50166;BME280;36071;48.140;11.516;2022-12-16T23:08:24;95510.0;;;-2.2;84.0
50166;BME280;36071;48.140;11.516;2022-12-16T23:13:24;95500.0;;;-2.3;84.5
50166;BME280;36071;48.140;11.516;2022-12-16T23:18:24;95510.0;;;-2.3;84.1
50166;BME280;36071;48.140;11.516;2022-12-16T23:23:24;95510.0;;;-2.3;82.9
50166;BME280;36071;48.140;11.516;2022-12-16T23:28:24;95520.0;;;-2.3;83.2
50166;BME280;36071;48.140;11.516;2022-12-16T23:33:24;95520.0;;;-2.3;85.6
50166;BME280;36071;48.140;11.516;2022-12-16T23:38:24;95530.0;;;-2.3;82.7
50166;BME280;36071;48.140;11.516;2022-12-16T23:43:24;95540.0;;;-2.4;82.3
50166;BME280;36071;48.140;11.516;2022-12-16T23:48:24;95540.0;;;-2.4;81.7
50166;BME280;36071;48.140;11.516;2022-12-16T23:53:24;95530.0;;;-2.3;80.3
50166;BME280;36071;48.140;11.516;2022-12-16T23:58:24;95540.0;;;-2.4;81.2
